Time;durP1;ratioP1;P1;durP2;ratioP2;P2;SDS_P1;SDS_P2;PMS_P1;PMS_P2;Temp;Humidity;BMP_temperature;BMP_pressure;BME280_temperature;BME280_humidity;BME280_pressure;Samples;Min_cycle;Max_cycle;Signal;HPM_P1;HPM_P2
2023/10/24 00:00:33;;;;;;;6.20;5.50;;;11.90;99.90;;;;;;5034350;28;20888;-63
2023/10/24 00:03:00;;;;;;;5.60;5.10;;;11.80;99.90;;;;;;5033452;28;20470;-64
2023/10/24 00:05:27;;;;;;;6.70;5.10;;;11.80;99.90;;;;;;5033310;28;20441;-63
2023/10/24 00:07:54;;;;;;;5.27;4.87;;;11.80;99.90;;;;;;5033210;28;20533;-63
2023/10/24 00:10:21;;;;;;;8.03;5.83;;;11.80;99.90;;;;;;5033281;28;20457;-64
2023/10/24 00:12:48;;;;;;;5.47;4.90;;;11.80;99.90;;;;;;5033301;28;21086;-64
2023/10/24 00:15:17;;;;;;;7.57;5.67;;;11.80;99.90;;;;;;5032824;28;20485;-63
2023/10/24 00:17:43;;;;;;;5.30;5.00;;;11.80;99.90;;;;;;5033385;28;20481;-62
2023/10/24 00:20:11;;;;;;;5.00;4.13;;;11.70;99.90;;;;;;5033849;28;20456;-63
2023/10/24 00:22:38;;;;;;;5.83;5.23;;;11.70;99.90;;;;;;5033556;28;20556;-63
2023/10/24 00:25:06;;;;;;;8.10;6.60;;;11.70;99.90;;;;;;5032767;28;20528;-62
2023/10/24 00:27:33;;;;;;;5.73;5.33;;;11.80;99.90;;;;;;5033040;28;20592;-62
2023/10/24 00:30:00;;;;;;;6.27;5.87;;;11.70;99.90;;;;;;5033218;28;20549;-64
2023/10/24 00:32:28;;;;;;;5.60;5.10;;;11.80;99.90;;;;;;5055233;22;21029;-64
2023/10/24 00:34:55;;;;;;;6.20;5.70;;;11.80;99.90;;;;;;5024772;28;20576;-64
2023/10/24 00:37:22;;;;;;;6.30;5.80;;;11.80;99.90;;;;;;5036258;28;20507;-64
2023/10/24 00:39:49;;;;;;;5.40;4.90;;;11.80;99.90;;;;;;5032051;28;20468;-64
2023/10/24 00:42:16;;;;;;;6.00;5.50;;;11.80;99.90;;;;;;5032133;28;20846;-64
2023/10/24 00:44:43;;;;;;;5.90;5.30;;;11.80;99.90;;;;;;5031678;28;20963;-64
2023/10/24 00:47:10;;;;;;;7.03;6.43;;;11.80;99.90;;;;;;5031735;28;20529;-64
2023/10/24 00:49:39;;;;;;;7.97;7.10;;;11.80;99.90;;;;;;5031809;28;20456;-64
2023/10/24 00:52:06;;;;;;;5.90;5.40;;;11.80;99.90;;;;;;5032118;28;20472;-64
2023/10/24 00:54:33;;;;;;;5.60;5.10;;;11.80;99.90;;;;;;5034036;28;20515;-65
2023/10/24 00:57:01;;;;;;;5.80;5.37;;;11.80;99.90;;;;;;5032827;28;20545;-64
2023/10/24 00:59:29;;;;;;;5.20;4.80;;;11.80;99.90;;;;;;5031733;28;20469;-64
2023/10/24 01:01:57;;;;;;;7.90;5.03;;;11.80;99.90;;;;;;5031480;28;20993;-64
2023/10/24 01:04:24;;;;;;;6.73;6.10;;;11.80;99.90;;;;;;5031340;28;20472;-65
2023/10/24 01:06:52;;;;;;;6.57;6.07;;;11.90;99.90;;;;;;5037337;28;20442;-64
2023/10/24 01:09:19;;;;;;;7.23;5.57;;;11.90;99.90;;;;;;5031673;28;20522;-64
2023/10/24 01:11:45;;;;;;;6.87;5.97;;;11.90;99.90;;;;;;5031501;28;20470;-64
2023/10/24 01:14:12;;;;;;;5.67;4.90;;;11.90;99.90;;;;;;5031161;28;20455;-64
2023/10/24 01:16:43;;;;;;;4.80;4.40;;;11.90;99.90;;;;;;5031355;28;20446;-64
2023/10/24 01:19:10;;;;;;;5.90;5.40;;;11.90;99.90;;;;;;5031507;28;20445;-65
2023/10/24 01:21:43;;;;;;;6.13;5.53;;;11.90;99.90;;;;;;5031355;28;20987;-64
2023/10/24 01:24:10;;;;;;;6.07;5.57;;;11.90;99.90;;;;;;5035524;28;20534;-64
2023/10/24 01:26:38;;;;;;;6.33;5.83;;;11.90;99.90;;;;;;5030932;28;20967;-64
2023/10/24 01:29:05;;;;;;;5.30;4.80;;;11.90;99.90;;;;;;5030938;28;20456;-64
2023/10/24 01:31:32;;;;;;;6.33;5.83;;;11.90;99.90;;;;;;5030964;28;20473;-65
2023/10/24 01:33:59;;;;;;;5.40;4.90;;;11.90;99.90;;;;;;5031554;28;20537;-64
2023/10/24 01:36:26;;;;;;;5.97;5.33;;;11.90;99.90;;;;;;5031003;28;20485;-64
2023/10/24 01:38:54;;;;;;;5.90;5.47;;;11.90;99.90;;;;;;5031244;28;20454;-64
2023/10/24 01:41:21;;;;;;;5.90;5.30;;;11.90;99.90;;;;;;5030880;28;21252;-64
2023/10/24 01:43:48;;;;;;;5.53;5.03;;;11.90;99.90;;;;;;5031601;28;20544;-64
2023/10/24 01:46:16;;;;;;;8.30;5.33;;;11.90;99.90;;;;;;5035255;28;20892;-64
2023/10/24 01:48:43;;;;;;;6.87;4.93;;;11.90;99.90;;;;;;5035224;28;20489;-64
2023/10/24 01:51:10;;;;;;;5.10;4.70;;;11.90;99.90;;;;;;5034739;28;20560;-65
2023/10/24 01:53:37;;;;;;;6.17;5.57;;;11.90;99.90;;;;;;5035147;28;20549;-64
2023/10/24 01:56:05;;;;;;;5.80;5.30;;;11.80;99.90;;;;;;5034303;28;20477;-64
2023/10/24 01:58:32;;;;;;;7.00;5.47;;;11.90;99.90;;;;;;5035123;28;20446;-64
2023/10/24 02:00:59;;;;;;;5.40;5.00;;;11.90;99.90;;;;;;5034881;28;20471;-65
2023/10/24 02:03:25;;;;;;;9.80;5.23;;;11.90;99.90;;;;;;5034932;28;20532;-64
2023/10/24 02:05:52;;;;;;;5.10;4.73;;;11.90;99.90;;;;;;5036513;28;20442;-64
2023/10/24 02:08:19;;;;;;;5.93;5.43;;;11.90;99.90;;;;;;5034512;28;20532;-64
2023/10/24 02:10:46;;;;;;;6.27;5.67;;;11.90;99.90;;;;;;5035078;28;20472;-64
2023/10/24 02:13:14;;;;;;;5.70;5.30;;;11.90;99.90;;;;;;5034905;28;20844;-64
2023/10/24 02:15:41;;;;;;;5.67;5.17;;;11.90;99.90;;;;;;5034395;28;20492;-64
2023/10/24 02:18:08;;;;;;;6.40;5.80;;;11.90;99.90;;;;;;5034753;28;20830;-64
2023/10/24 02:20:35;;;;;;;6.13;5.67;;;11.90;99.90;;;;;;5034615;28;20545;-64
2023/10/24 02:23:01;;;;;;;8.33;7.53;;;11.80;99.90;;;;;;5034621;28;20536;-64
2023/10/24 02:25:28;;;;;;;8.67;6.43;;;11.90;99.90;;;;;;5034614;28;20529;-64
2023/10/24 02:27:56;;;;;;;7.27;6.00;;;11.90;99.90;;;;;;5034561;28;20961;-64
2023/10/24 02:30:24;;;;;;;6.97;6.37;;;11.90;99.90;;;;;;5034521;28;20545;-64
2023/10/24 02:32:51;;;;;;;6.67;6.07;;;11.80;99.90;;;;;;5034557;28;20540;-64
2023/10/24 02:35:17;;;;;;;7.67;7.00;;;11.80;99.90;;;;;;5034035;28;21036;-64
2023/10/24 02:37:44;;;;;;;10.47;7.67;;;11.80;99.90;;;;;;5034579;28;20452;-64
2023/10/24 02:40:12;;;;;;;6.63;6.07;;;11.80;99.90;;;;;;5034520;28;20822;-64
2023/10/24 02:42:39;;;;;;;8.20;6.80;;;11.80;99.90;;;;;;5034185;28;20549;-64
2023/10/24 02:45:07;;;;;;;8.73;7.90;;;11.80;99.90;;;;;;5033995;28;20974;-65
2023/10/24 02:47:35;;;;;;;7.90;7.30;;;11.80;99.90;;;;;;5034378;28;20449;-64
2023/10/24 02:50:01;;;;;;;7.50;6.80;;;11.80;99.90;;;;;;5033906;28;20533;-64
2023/10/24 02:52:29;;;;;;;7.87;6.70;;;11.80;99.90;;;;;;5034201;28;20465;-64
2023/10/24 02:54:56;;;;;;;7.70;6.97;;;11.90;99.90;;;;;;5033420;28;20486;-64
2023/10/24 02:57:23;;;;;;;10.77;7.33;;;11.80;99.90;;;;;;5034068;28;20441;-64
2023/10/24 02:59:50;;;;;;;7.67;6.97;;;11.90;99.90;;;;;;5033981;28;20445;-64
2023/10/24 03:02:17;;;;;;;7.10;6.43;;;11.90;99.90;;;;;;5033732;28;20468;-64
2023/10/24 03:04:45;;;;;;;7.60;6.90;;;11.90;99.90;;;;;;5033689;28;20825;-64
2023/10/24 03:07:12;;;;;;;7.27;6.57;;;11.90;99.90;;;;;;5033937;28;20446;-64
2023/10/24 03:09:39;;;;;;;8.30;7.60;;;11.80;99.90;;;;;;5033882;28;20829;-64
2023/10/24 03:12:09;;;;;;;13.30;7.47;;;11.80;99.90;;;;;;5033757;28;20470;-65
2023/10/24 03:14:36;;;;;;;9.43;8.13;;;11.80;99.90;;;;;;5037927;28;20453;-64
2023/10/24 03:17:03;;;;;;;8.23;7.47;;;11.80;99.90;;;;;;5053721;28;20540;-64
2023/10/24 03:19:32;;;;;;;7.50;6.80;;;11.80;99.90;;;;;;5053530;28;20533;-64
2023/10/24 03:22:01;;;;;;;7.57;6.97;;;11.80;99.90;;;;;;5053497;28;20461;-64
2023/10/24 03:24:29;;;;;;;7.97;7.27;;;11.90;99.90;;;;;;5053193;28;20452;-65
2023/10/24 03:26:56;;;;;;;7.63;6.70;;;11.80;99.90;;;;;;5053524;28;20437;-64
2023/10/24 03:29:23;;;;;;;9.23;8.43;;;11.80;99.90;;;;;;5052888;28;20445;-64
2023/10/24 03:31:49;;;;;;;8.33;7.60;;;11.80;99.90;;;;;;5053080;28;20480;-64
2023/10/24 03:34:16;;;;;;;8.47;7.67;;;11.80;99.90;;;;;;5053228;28;20449;-64
2023/10/24 03:36:43;;;;;;;8.80;8.10;;;11.90;99.90;;;;;;5052835;28;20487;-64
2023/10/24 03:39:11;;;;;;;7.93;7.17;;;11.80;99.90;;;;;;5052989;28;20535;-65
2023/10/24 03:41:38;;;;;;;7.80;7.20;;;11.90;99.90;;;;;;5053033;28;20465;-64
2023/10/24 03:44:05;;;;;;;10.80;7.37;;;11.90;99.90;;;;;;5053135;28;20475;-64
2023/10/24 03:46:32;;;;;;;8.47;7.60;;;11.90;99.90;;;;;;5052823;28;20441;-64
2023/10/24 03:48:59;;;;;;;8.50;7.60;;;11.90;99.90;;;;;;5052905;28;20445;-64
2023/10/24 03:51:26;;;;;;;10.60;6.30;;;11.90;99.90;;;;;;5052665;28;20554;-64
2023/10/24 03:53:53;;;;;;;7.97;7.37;;;11.90;99.90;;;;;;5052733;28;20463;-64
2023/10/24 03:56:21;;;;;;;7.70;7.10;;;11.90;99.90;;;;;;5052547;28;20527;-64
2023/10/24 03:58:48;;;;;;;8.80;8.00;;;11.90;99.90;;;;;;5052730;28;20437;-64
2023/10/24 04:01:14;;;;;;;8.53;7.73;;;11.90;99.90;;;;;;5052671;28;20471;-64
2023/10/24 04:03:41;;;;;;;6.90;6.30;;;11.90;99.90;;;;;;5052580;28;20449;-64
2023/10/24 04:06:11;;;;;;;8.87;7.97;;;11.90;99.90;;;;;;5051980;28;20528;-65
2023/10/24 04:08:38;;;;;;;8.23;7.50;;;11.90;99.90;;;;;;5051857;28;20965;-64
2023/10/24 04:11:12;;;;;;;8.30;7.60;;;11.90;99.90;;;;;;5052506;28;20555;-64
2023/10/24 04:13:40;;;;;;;7.23;6.73;;;11.90;99.90;;;;;;5052355;28;20539;-64
2023/10/24 04:16:07;;;;;;;8.63;7.70;;;11.90;99.90;;;;;;5052026;28;20487;-64
2023/10/24 04:18:34;;;;;;;7.60;7.00;;;11.90;99.90;;;;;;5052193;28;20475;-64
2023/10/24 04:21:00;;;;;;;9.77;8.20;;;11.90;99.90;;;;;;5052110;28;20559;-64
2023/10/24 04:23:27;;;;;;;8.67;7.87;;;11.90;99.90;;;;;;5052402;28;20449;-64
2023/10/24 04:25:55;;;;;;;8.50;7.80;;;11.90;99.90;;;;;;5052002;28;20445;-64
2023/10/24 04:28:22;;;;;;;8.60;7.20;;;12.00;99.90;;;;;;5052112;28;20471;-64
2023/10/24 04:30:52;;;;;;;8.67;7.77;;;12.00;99.90;;;;;;5051910;28;20564;-64
2023/10/24 04:33:19;;;;;;;8.53;7.83;;;12.00;99.90;;;;;;5052148;28;20547;-64
2023/10/24 04:35:47;;;;;;;12.00;8.43;;;12.00;99.90;;;;;;5051827;28;20492;-64
2023/10/24 04:38:14;;;;;;;8.90;7.70;;;12.00;99.90;;;;;;5052085;28;20453;-64
2023/10/24 04:40:41;;;;;;;7.60;6.80;;;12.00;99.90;;;;;;5051870;28;20556;-64
2023/10/24 04:43:09;;;;;;;7.47;6.83;;;12.00;99.90;;;;;;5051830;28;20536;-64
2023/10/24 04:45:36;;;;;;;6.97;6.47;;;12.00;99.90;;;;;;5051487;28;20460;-65
2023/10/24 04:48:05;;;;;;;7.93;7.23;;;12.00;99.90;;;;;;5051888;28;20447;-65
2023/10/24 04:50:36;;;;;;;8.50;7.80;;;12.00;99.90;;;;;;5052040;28;20472;-64
2023/10/24 04:53:03;;;;;;;8.87;7.97;;;12.00;99.90;;;;;;5051834;28;20445;-64
2023/10/24 04:55:29;;;;;;;9.70;8.70;;;12.00;99.90;;;;;;5051391;28;20484;-65
2023/10/24 04:57:56;;;;;;;9.43;8.63;;;12.00;99.90;;;;;;5051539;28;20449;-64
2023/10/24 05:00:24;;;;;;;7.10;6.50;;;12.00;99.90;;;;;;5051280;28;20449;-65
2023/10/24 05:02:52;;;;;;;7.03;6.30;;;12.00;99.90;;;;;;5051457;28;20510;-64
2023/10/24 05:05:21;;;;;;;11.90;7.30;;;12.00;99.90;;;;;;5051301;28;20448;-64
2023/10/24 05:07:48;;;;;;;7.80;6.83;;;12.00;99.90;;;;;;5051441;28;20473;-65
2023/10/24 05:10:15;;;;;;;9.83;7.23;;;11.90;99.90;;;;;;5051434;28;20467;-65
2023/10/24 05:12:42;;;;;;;7.30;6.67;;;11.90;99.90;;;;;;5051150;28;20552;-64
2023/10/24 05:15:10;;;;;;;7.90;7.20;;;11.90;99.90;;;;;;5051315;28;20449;-65
2023/10/24 05:17:36;;;;;;;8.13;7.33;;;12.00;99.90;;;;;;5051434;28;20542;-64
2023/10/24 05:20:06;;;;;;;8.27;7.60;;;12.00;99.90;;;;;;5051095;28;20451;-64
2023/10/24 05:22:34;;;;;;;8.30;7.63;;;12.00;99.90;;;;;;5051270;28;20500;-64
2023/10/24 05:25:01;;;;;;;8.70;8.00;;;12.00;99.90;;;;;;5050880;28;21007;-65
2023/10/24 05:27:28;;;;;;;8.20;7.50;;;12.00;99.90;;;;;;5051397;28;20444;-64
2023/10/24 05:29:55;;;;;;;8.63;7.47;;;12.00;99.90;;;;;;5050879;28;20544;-64
2023/10/24 05:32:22;;;;;;;9.50;8.03;;;12.00;99.90;;;;;;5050745;28;20917;-65
2023/10/24 05:34:49;;;;;;;9.00;8.20;;;12.00;99.90;;;;;;5050825;28;20455;-65
2023/10/24 05:37:16;;;;;;;9.30;6.97;;;12.00;99.90;;;;;;5050953;28;20902;-64
2023/10/24 05:39:44;;;;;;;9.27;8.47;;;12.00;99.90;;;;;;5051243;28;20448;-64
2023/10/24 05:42:11;;;;;;;8.33;7.53;;;12.00;99.90;;;;;;5051177;28;20562;-64
2023/10/24 05:44:38;;;;;;;8.57;7.77;;;11.90;99.90;;;;;;5050771;28;21213;-65
2023/10/24 05:47:05;;;;;;;9.93;8.93;;;11.90;99.90;;;;;;5051010;28;20994;-64
2023/10/24 05:49:32;;;;;;;9.00;8.20;;;11.90;99.90;;;;;;5051272;28;20531;-64
2023/10/24 05:51:58;;;;;;;8.07;7.20;;;11.90;99.90;;;;;;5050994;28;20468;-65
2023/10/24 05:54:25;;;;;;;8.67;7.37;;;11.90;99.90;;;;;;5050752;28;21022;-64
2023/10/24 05:56:53;;;;;;;8.87;8.10;;;12.00;99.90;;;;;;5050897;28;20480;-64
2023/10/24 05:59:20;;;;;;;8.90;8.20;;;11.90;99.90;;;;;;5051217;28;20901;-64
2023/10/24 06:01:47;;;;;;;9.40;8.30;;;11.90;99.90;;;;;;5051046;28;20471;-64
2023/10/24 06:04:14;;;;;;;9.80;9.10;;;11.90;99.90;;;;;;5050914;28;20524;-64
2023/10/24 06:06:41;;;;;;;10.63;9.63;;;11.90;99.90;;;;;;5050598;28;20876;-64
2023/10/24 06:09:12;;;;;;;12.73;11.53;;;11.90;99.90;;;;;;5050736;28;20449;-64
2023/10/24 06:11:39;;;;;;;11.80;10.80;;;12.00;99.90;;;;;;5050833;28;20472;-64
2023/10/24 06:14:08;;;;;;;10.57;9.77;;;11.90;99.90;;;;;;5050756;28;20540;-65
2023/10/24 06:16:35;;;;;;;8.50;7.70;;;12.00;99.90;;;;;;5050535;28;20831;-64
2023/10/24 06:19:02;;;;;;;9.03;8.10;;;11.90;99.90;;;;;;5051050;28;20444;-64
2023/10/24 06:21:29;;;;;;;10.00;8.97;;;11.90;99.90;;;;;;5050701;28;20527;-64
2023/10/24 06:23:56;;;;;;;10.03;9.20;;;12.00;99.90;;;;;;5050885;28;20531;-64
2023/10/24 06:26:23;;;;;;;10.70;9.77;;;12.00;99.90;;;;;;5050455;28;20535;-65
2023/10/24 06:28:49;;;;;;;10.97;10.07;;;12.00;99.90;;;;;;5050607;28;20984;-64
2023/10/24 06:31:18;;;;;;;11.20;10.30;;;12.00;99.90;;;;;;5053039;28;20488;-64
2023/10/24 06:33:45;;;;;;;11.33;10.23;;;12.00;99.90;;;;;;5054323;28;20539;-65
2023/10/24 06:36:12;;;;;;;10.60;9.80;;;12.00;99.90;;;;;;5053806;28;20491;-64
2023/10/24 06:38:39;;;;;;;10.63;9.63;;;12.00;99.90;;;;;;5054137;28;20448;-64
2023/10/24 06:41:08;;;;;;;10.47;9.50;;;12.00;99.90;;;;;;5053875;28;20552;-64
2023/10/24 06:43:35;;;;;;;10.53;9.60;;;12.00;99.90;;;;;;5054122;28;20965;-64
2023/10/24 06:46:04;;;;;;;11.50;10.40;;;12.00;99.90;;;;;;5053934;28;20527;-64
2023/10/24 06:48:32;;;;;;;11.40;10.40;;;12.00;99.90;;;;;;5053879;28;20445;-64
2023/10/24 06:50:59;;;;;;;10.90;9.83;;;12.10;99.90;;;;;;5053704;28;20468;-64
2023/10/24 06:53:26;;;;;;;11.67;10.57;;;12.10;99.90;;;;;;5030234;28;20449;-64
2023/10/24 06:55:59;;;;;;;11.37;10.37;;;12.10;99.90;;;;;;5029200;28;20549;-65
2023/10/24 06:58:25;;;;;;;16.67;13.07;;;12.10;99.90;;;;;;5033689;28;20456;-64
2023/10/24 07:00:52;;;;;;;12.73;11.50;;;12.10;99.90;;;;;;5028981;28;20480;-64
2023/10/24 07:03:19;;;;;;;15.20;13.80;;;12.20;99.90;;;;;;5025012;28;20454;-64
2023/10/24 07:05:52;;;;;;;14.07;12.73;;;12.20;99.90;;;;;;5056876;22;20576;-63
2023/10/24 07:08:18;;;;;;;13.53;12.23;;;12.20;99.90;;;;;;5036123;28;20461;-63
2023/10/24 07:10:45;;;;;;;14.47;13.30;;;12.20;99.90;;;;;;5035578;28;20532;-63
2023/10/24 07:13:12;;;;;;;13.33;11.60;;;12.30;99.90;;;;;;5033765;28;20974;-62
2023/10/24 07:15:39;;;;;;;12.80;11.57;;;12.30;99.90;;;;;;5032923;28;20911;-63
2023/10/24 07:18:06;;;;;;;11.57;10.67;;;12.30;99.90;;;;;;5033160;28;20494;-63
2023/10/24 07:20:36;;;;;;;12.27;11.07;;;12.30;99.90;;;;;;5033197;28;20545;-63
2023/10/24 07:23:05;;;;;;;13.53;12.23;;;12.40;99.90;;;;;;5026535;28;20457;-64
2023/10/24 07:25:32;;;;;;;12.53;11.20;;;12.40;99.90;;;;;;5032410;28;20854;-63
2023/10/24 07:27:59;;;;;;;13.13;11.80;;;12.40;99.90;;;;;;5039368;28;20452;-63
2023/10/24 07:30:26;;;;;;;11.40;10.40;;;12.40;99.90;;;;;;5033109;28;20532;-63
2023/10/24 07:32:54;;;;;;;11.27;10.17;;;12.50;99.90;;;;;;5036112;28;20460;-64
2023/10/24 07:35:21;;;;;;;11.37;10.47;;;12.50;99.90;;;;;;5032912;28;20470;-64
2023/10/24 07:37:48;;;;;;;10.63;9.73;;;12.50;99.90;;;;;;5033583;28;21094;-64
2023/10/24 07:40:16;;;;;;;12.33;11.00;;;12.50;99.90;;;;;;5032677;28;20464;-64
2023/10/24 07:42:43;;;;;;;12.57;11.47;;;12.60;99.90;;;;;;5033166;28;20541;-64
2023/10/24 07:45:12;;;;;;;13.90;12.50;;;12.60;99.90;;;;;;5032507;28;20831;-64
2023/10/24 07:47:39;;;;;;;12.90;11.77;;;12.70;99.90;;;;;;5032821;28;20457;-64
2023/10/24 07:50:08;;;;;;;11.93;10.87;;;12.70;99.90;;;;;;5032385;28;20849;-64
2023/10/24 07:52:35;;;;;;;11.20;10.03;;;12.70;99.90;;;;;;5037718;28;20496;-64
2023/10/24 07:55:02;;;;;;;11.87;10.67;;;12.80;99.90;;;;;;5029165;28;20454;-64
2023/10/24 07:57:30;;;;;;;11.57;10.47;;;12.80;99.90;;;;;;5031834;28;20577;-64
2023/10/24 07:59:57;;;;;;;12.90;10.43;;;12.90;99.90;;;;;;5032427;28;20446;-64
2023/10/24 08:02:24;;;;;;;10.63;9.83;;;12.90;99.90;;;;;;5037781;28;20449;-64
2023/10/24 08:04:51;;;;;;;12.67;11.60;;;12.90;99.90;;;;;;5032666;28;20493;-64
2023/10/24 08:07:18;;;;;;;11.20;10.30;;;12.90;99.90;;;;;;5031198;28;20561;-64
2023/10/24 08:09:45;;;;;;;13.10;11.50;;;13.00;99.90;;;;;;5031562;28;20450;-64
2023/10/24 08:12:12;;;;;;;11.10;10.10;;;13.00;99.90;;;;;;5031480;28;21031;-64
2023/10/24 08:14:40;;;;;;;11.50;10.50;;;13.00;99.90;;;;;;5031765;28;20454;-64
2023/10/24 08:17:07;;;;;;;13.00;11.80;;;13.10;99.90;;;;;;5031568;28;20869;-64
2023/10/24 08:19:34;;;;;;;13.37;12.00;;;13.10;99.90;;;;;;5031840;28;20466;-64
2023/10/24 08:22:01;;;;;;;12.80;11.60;;;13.10;99.90;;;;;;5026163;28;20441;-64
2023/10/24 08:24:29;;;;;;;12.90;11.70;;;13.10;99.90;;;;;;5031096;28;20528;-64
2023/10/24 08:26:56;;;;;;;13.10;12.00;;;13.10;99.90;;;;;;5031946;28;20469;-64
2023/10/24 08:29:22;;;;;;;12.07;10.97;;;13.10;99.90;;;;;;5031806;28;20895;-64
2023/10/24 08:31:51;;;;;;;11.30;10.27;;;13.10;99.90;;;;;;5031831;28;20449;-64
2023/10/24 08:34:17;;;;;;;10.87;10.03;;;13.10;99.90;;;;;;5031695;28;20441;-64
2023/10/24 08:36:44;;;;;;;14.00;11.93;;;13.10;99.90;;;;;;5031315;28;20485;-64
2023/10/24 08:39:26;;;;;;;13.10;11.90;;;13.10;99.90;;;;;;5008879;28;20449;-64
2023/10/24 08:41:54;;;;;;;11.27;10.37;;;13.20;99.90;;;;;;5031421;28;20453;-64
2023/10/24 08:44:22;;;;;;;11.13;9.97;;;13.20;99.90;;;;;;5031309;28;20797;-64
2023/10/24 08:46:51;;;;;;;11.63;10.63;;;13.20;99.90;;;;;;5030878;28;20473;-63
2023/10/24 08:49:19;;;;;;;11.30;10.40;;;13.20;99.90;;;;;;5030980;28;20452;-63
2023/10/24 08:51:47;;;;;;;10.80;9.83;;;13.30;99.90;;;;;;5031333;28;21044;-63
2023/10/24 08:54:14;;;;;;;10.63;9.77;;;13.30;99.90;;;;;;5031348;28;20503;-64
2023/10/24 08:56:42;;;;;;;9.90;9.10;;;13.30;99.90;;;;;;5031511;28;20560;-64
2023/10/24 08:59:10;;;;;;;11.30;10.30;;;13.30;99.90;;;;;;5031832;28;20511;-64
2023/10/24 09:01:39;;;;;;;13.10;12.03;;;13.30;99.90;;;;;;5031139;28;20450;-64
2023/10/24 09:04:07;;;;;;;12.97;11.77;;;13.40;99.90;;;;;;5031587;28;20889;-64
2023/10/24 09:06:35;;;;;;;11.57;10.47;;;13.30;99.90;;;;;;5031133;28;20480;-63
2023/10/24 09:09:02;;;;;;;10.87;9.90;;;13.40;99.90;;;;;;5031663;28;20446;-64
2023/10/24 09:11:53;;;;;;;13.17;11.63;;;13.40;99.90;;;;;;5031675;28;20971;-64
2023/10/24 09:14:20;;;;;;;11.00;10.10;;;13.40;99.90;;;;;;5031303;28;20449;-64
2023/10/24 09:16:53;;;;;;;11.10;10.10;;;13.40;99.90;;;;;;5030395;28;20568;-64
2023/10/24 09:19:22;;;;;;;12.20;11.10;;;13.40;99.90;;;;;;5031361;28;20492;-64
2023/10/24 09:21:50;;;;;;;11.83;10.87;;;13.50;99.90;;;;;;5031174;28;20537;-63
2023/10/24 09:24:18;;;;;;;11.87;10.70;;;13.50;99.90;;;;;;5030446;28;20936;-63
2023/10/24 09:26:51;;;;;;;12.00;10.83;;;13.50;99.90;;;;;;5030690;28;20469;-63
2023/10/24 09:29:18;;;;;;;11.57;10.67;;;13.50;99.90;;;;;;5031522;28;20816;-64
2023/10/24 09:31:46;;;;;;;18.60;13.40;;;13.60;99.90;;;;;;5031403;28;20449;-64
2023/10/24 09:34:13;;;;;;;12.10;10.90;;;13.60;99.90;;;;;;5030944;28;20448;-64
2023/10/24 09:36:42;;;;;;;12.10;11.10;;;13.60;99.90;;;;;;5030981;28;20557;-63
2023/10/24 09:39:10;;;;;;;11.23;10.13;;;13.60;99.90;;;;;;5031101;28;20532;-63
2023/10/24 09:41:38;;;;;;;11.50;10.30;;;13.70;99.90;;;;;;5031081;28;20525;-63
2023/10/24 09:44:06;;;;;;;12.27;11.30;;;13.70;99.90;;;;;;5030915;28;21022;-63
2023/10/24 09:46:34;;;;;;;14.40;13.03;;;13.70;99.90;;;;;;5029413;28;20461;-64
2023/10/24 09:49:02;;;;;;;11.90;10.90;;;13.70;99.90;;;;;;5030453;28;20448;-63
2023/10/24 09:51:31;;;;;;;12.30;11.27;;;13.70;99.90;;;;;;5030692;28;20995;-63
2023/10/24 09:53:59;;;;;;;13.37;12.17;;;13.70;99.90;;;;;;5030484;28;20454;-64
2023/10/24 09:56:27;;;;;;;15.73;14.17;;;13.70;99.90;;;;;;5030368;28;20469;-64
2023/10/24 09:58:55;;;;;;;13.13;11.90;;;13.70;99.90;;;;;;5027598;28;20496;-64
2023/10/24 10:01:23;;;;;;;13.37;11.97;;;13.70;99.90;;;;;;5030230;28;20441;-63
2023/10/24 10:03:51;;;;;;;14.57;13.17;;;13.70;99.90;;;;;;5030086;28;20445;-63
2023/10/24 10:06:19;;;;;;;12.63;11.53;;;13.70;99.90;;;;;;5032423;28;20472;-63
2023/10/24 10:08:49;;;;;;;13.13;12.03;;;13.70;99.90;;;;;;5033983;28;21200;-64
2023/10/24 10:11:18;;;;;;;14.57;13.37;;;13.70;99.90;;;;;;5034458;28;20520;-63
2023/10/24 10:13:54;;;;;;;13.40;12.20;;;13.70;99.90;;;;;;5034167;28;20444;-63
2023/10/24 10:16:35;;;;;;;14.33;12.83;;;13.70;99.90;;;;;;5038161;28;20467;-63
2023/10/24 10:19:36;;;;;;;13.10;12.03;;;13.70;99.90;;;;;;5035750;28;20575;-63
2023/10/24 10:22:24;;;;;;;15.23;13.90;;;13.70;99.90;;;;;;5033615;28;20529;-63
2023/10/24 10:25:13;;;;;;;14.57;13.17;;;13.70;99.90;;;;;;5033665;28;20931;-63
2023/10/24 10:27:50;;;;;;;13.73;12.43;;;13.60;99.90;;;;;;5031991;28;20438;-63
2023/10/24 10:30:25;;;;;;;13.90;12.73;;;13.70;99.90;;;;;;5034016;28;20496;-63
2023/10/24 10:33:04;;;;;;;13.60;12.40;;;13.60;99.90;;;;;;5034039;28;20451;-63
2023/10/24 10:35:49;;;;;;;16.13;14.60;;;13.60;99.90;;;;;;5019147;28;20464;-64
2023/10/24 10:38:25;;;;;;;17.40;14.73;;;13.60;99.90;;;;;;5033658;28;20604;-64
2023/10/24 10:40:52;;;;;;;16.20;14.17;;;13.60;99.90;;;;;;5033743;28;20468;-64
2023/10/24 10:43:36;;;;;;;16.77;15.17;;;13.60;99.90;;;;;;5033356;28;20456;-64
2023/10/24 10:46:19;;;;;;;17.17;15.50;;;13.60;99.90;;;;;;5032782;28;20533;-64
2023/10/24 10:48:48;;;;;;;16.50;15.20;;;13.60;99.90;;;;;;5033550;28;20880;-64
2023/10/24 10:51:20;;;;;;;17.60;15.90;;;13.60;99.90;;;;;;5033647;28;20441;-64
2023/10/24 10:53:55;;;;;;;17.27;15.73;;;13.60;99.90;;;;;;5033551;28;20936;-64
2023/10/24 10:56:25;;;;;;;16.87;15.30;;;13.60;99.90;;;;;;5033018;28;20473;-64
2023/10/24 10:59:12;;;;;;;17.43;15.80;;;13.60;99.90;;;;;;5033405;28;20572;-64
2023/10/24 11:01:51;;;;;;;17.57;15.80;;;13.70;99.90;;;;;;5019883;28;20438;-64
2023/10/24 11:04:18;;;;;;;20.43;18.63;;;13.60;99.90;;;;;;5032588;28;20923;-64
2023/10/24 11:06:51;;;;;;;19.73;17.80;;;13.60;99.90;;;;;;5032318;28;20477;-64
2023/10/24 11:09:20;;;;;;;18.43;16.60;;;13.70;99.90;;;;;;5026262;28;20971;-65
2023/10/24 11:11:47;;;;;;;18.77;16.93;;;13.70;99.90;;;;;;5033128;28;20508;-64
2023/10/24 11:14:17;;;;;;;20.70;18.60;;;13.70;99.90;;;;;;5032482;28;20553;-65
2023/10/24 11:16:44;;;;;;;20.60;18.63;;;13.70;99.90;;;;;;5032360;28;20854;-65
2023/10/24 11:19:18;;;;;;;20.67;18.67;;;13.70;99.90;;;;;;5032338;28;20496;-65
2023/10/24 11:21:46;;;;;;;17.07;15.60;;;13.70;99.90;;;;;;5032439;28;20445;-64
2023/10/24 11:24:17;;;;;;;20.53;18.63;;;13.70;99.90;;;;;;5032756;28;20452;-64
2023/10/24 11:26:43;;;;;;;20.73;18.53;;;13.70;99.90;;;;;;5032605;28;20457;-65
2023/10/24 11:29:12;;;;;;;25.33;23.03;;;13.70;99.90;;;;;;5032733;28;20982;-65
2023/10/24 11:31:43;;;;;;;21.23;19.27;;;13.70;99.90;;;;;;5032582;28;20438;-65
2023/10/24 11:34:12;;;;;;;22.00;19.80;;;13.70;99.90;;;;;;5032766;28;20449;-64
2023/10/24 11:36:40;;;;;;;20.50;18.53;;;13.70;99.90;;;;;;5032290;28;20474;-65
2023/10/24 11:39:08;;;;;;;23.30;20.93;;;13.80;99.90;;;;;;5031245;28;20672;-65
2023/10/24 11:41:35;;;;;;;22.47;20.37;;;13.80;99.90;;;;;;5032537;28;20530;-65
2023/10/24 11:44:02;;;;;;;20.17;18.30;;;13.80;99.90;;;;;;5032542;28;20442;-65
2023/10/24 11:46:29;;;;;;;19.00;17.20;;;13.90;99.90;;;;;;5031994;28;20472;-65
2023/10/24 11:48:57;;;;;;;19.03;17.27;;;13.90;99.90;;;;;;5032541;28;20882;-65
2023/10/24 11:51:25;;;;;;;17.60;15.80;;;13.90;99.90;;;;;;5031623;28;20438;-65
2023/10/24 11:54:01;;;;;;;17.17;15.37;;;13.90;99.90;;;;;;5032559;28;20825;-65
2023/10/24 11:56:28;;;;;;;17.10;15.37;;;13.90;99.90;;;;;;5031793;28;20552;-65
2023/10/24 11:58:55;;;;;;;16.80;15.20;;;13.90;99.90;;;;;;5030711;28;20490;-65
2023/10/24 12:01:23;;;;;;;18.10;16.60;;;13.90;99.90;;;;;;5032396;28;20453;-65
2023/10/24 12:03:57;;;;;;;18.50;16.83;;;13.90;99.90;;;;;;5031652;28;20522;-65
2023/10/24 12:06:26;;;;;;;18.93;17.13;;;13.90;99.90;;;;;;5031922;28;20484;-65
2023/10/24 12:08:53;;;;;;;18.50;16.17;;;13.90;99.90;;;;;;5031839;28;20532;-65
2023/10/24 12:11:20;;;;;;;19.57;17.50;;;13.90;99.90;;;;;;5031277;28;20950;-65
2023/10/24 12:13:47;;;;;;;20.00;17.93;;;13.90;99.90;;;;;;5032182;28;20521;-65
2023/10/24 12:16:15;;;;;;;21.27;19.10;;;14.00;99.90;;;;;;5031604;28;21015;-65
2023/10/24 12:18:42;;;;;;;18.60;16.80;;;14.00;99.90;;;;;;5031887;28;20936;-65
2023/10/24 12:21:11;;;;;;;20.73;18.23;;;14.00;99.90;;;;;;5031423;28;20539;-65
2023/10/24 12:23:37;;;;;;;20.27;18.33;;;14.00;99.90;;;;;;5031823;28;20856;-65
2023/10/24 12:26:05;;;;;;;20.20;17.50;;;14.00;99.90;;;;;;5030078;28;20465;-65
2023/10/24 12:28:32;;;;;;;19.57;17.67;;;14.00;99.90;;;;;;5028886;28;20824;-65
2023/10/24 12:30:59;;;;;;;18.17;16.67;;;14.00;99.90;;;;;;5030735;28;20548;-66
2023/10/24 12:33:28;;;;;;;16.23;14.83;;;14.00;99.90;;;;;;5031399;28;20489;-66
2023/10/24 12:35:55;;;;;;;16.67;15.17;;;14.00;99.90;;;;;;5030367;28;20543;-66
2023/10/24 12:38:24;;;;;;;15.53;14.00;;;14.00;99.90;;;;;;5030223;28;20485;-66
2023/10/24 12:40:50;;;;;;;16.20;14.70;;;14.00;99.90;;;;;;5030460;28;20801;-66
2023/10/24 12:43:17;;;;;;;15.97;14.47;;;14.10;99.90;;;;;;5031280;28;20449;-66